sensor_id;sensor_type;location;lat;lon;timestamp;temperature;humidity
68924;DHT22;55961;52.156;20.942;2022-09-24T00:00:58;8.30;69.90
68924;DHT22;55961;52.156;20.942;2022-09-24T00:03:28;8.30;69.80
68924;DHT22;55961;52.156;20.942;2022-09-24T00:06:01;8.20;69.80
68924;DHT22;55961;52.156;20.942;2022-09-24T00:08:28;8.20;69.90
68924;DHT22;55961;52.156;20.942;2022-09-24T00:10:54;8.10;70.00
68924;DHT22;55961;52.156;20.942;2022-09-24T00:13:22;8.10;70.10
68924;DHT22;55961;52.156;20.942;2022-09-24T00:15:49;8.00;70.10
68924;DHT22;55961;52.156;20.942;2022-09-24T00:18:16;8.00;70.20
68924;DHT22;55961;52.156;20.942;2022-09-24T00:20:42;8.00;70.30
68924;DHT22;55961;52.156;20.942;2022-09-24T00:23:10;7.90;70.30
68924;DHT22;55961;52.156;20.942;2022-09-24T00:25:46;7.90;70.30
68924;DHT22;55961;52.156;20.942;2022-09-24T00:28:32;7.80;70.40
68924;DHT22;55961;52.156;20.942;2022-09-24T00:30:59;7.80;70.40
68924;DHT22;55961;52.156;20.942;2022-09-24T00:33:28;7.80;70.60
68924;DHT22;55961;52.156;20.942;2022-09-24T00:35:58;7.70;70.50
68924;DHT22;55961;52.156;20.942;2022-09-24T00:38:27;7.70;70.50
68924;DHT22;55961;52.156;20.942;2022-09-24T00:40:55;7.60;70.60
68924;DHT22;55961;52.156;20.942;2022-09-24T00:43:23;7.60;70.70
68924;DHT22;55961;52.156;20.942;2022-09-24T00:45:51;7.60;70.70
68924;DHT22;55961;52.156;20.942;2022-09-24T00:48:18;7.50;70.80
68924;DHT22;55961;52.156;20.942;2022-09-24T00:50:43;7.50;70.90
68924;DHT22;55961;52.156;20.942;2022-09-24T00:53:14;7.50;70.90
68924;DHT22;55961;52.156;20.942;2022-09-24T00:55:43;7.40;70.90
68924;DHT22;55961;52.156;20.942;2022-09-24T00:58:11;7.40;70.90
68924;DHT22;55961;52.156;20.942;2022-09-24T01:00:38;7.40;71.00
68924;DHT22;55961;52.156;20.942;2022-09-24T01:03:11;7.40;71.10
68924;DHT22;55961;52.156;20.942;2022-09-24T01:05:38;7.30;71.30
68924;DHT22;55961;52.156;20.942;2022-09-24T01:08:11;7.30;71.20
68924;DHT22;55961;52.156;20.942;2022-09-24T01:13:47;7.20;72.30
68924;DHT22;55961;52.156;20.942;2022-09-24T01:16:23;7.10;72.70
68924;DHT22;55961;52.156;20.942;2022-09-24T01:19:02;7.10;72.90
68924;DHT22;55961;52.156;20.942;2022-09-24T01:21:49;7.10;72.80
68924;DHT22;55961;52.156;20.942;2022-09-24T01:27:21;7.10;72.70
68924;DHT22;55961;52.156;20.942;2022-09-24T01:30:09;7.00;72.80
68924;DHT22;55961;52.156;20.942;2022-09-24T01:32:52;7.10;72.90
68924;DHT22;55961;52.156;20.942;2022-09-24T01:35:33;7.10;72.80
68924;DHT22;55961;52.156;20.942;2022-09-24T01:38:03;7.10;72.60
68924;DHT22;55961;52.156;20.942;2022-09-24T01:40:31;7.00;72.60
68924;DHT22;55961;52.156;20.942;2022-09-24T01:42:58;7.00;72.50
68924;DHT22;55961;52.156;20.942;2022-09-24T01:45:26;7.00;72.30
68924;DHT22;55961;52.156;20.942;2022-09-24T01:47:58;7.00;72.30
68924;DHT22;55961;52.156;20.942;2022-09-24T01:50:25;6.90;72.20
68924;DHT22;55961;52.156;20.942;2022-09-24T01:52:58;7.00;72.60
68924;DHT22;55961;52.156;20.942;2022-09-24T01:55:29;6.90;72.80
68924;DHT22;55961;52.156;20.942;2022-09-24T01:58:06;6.90;72.60
68924;DHT22;55961;52.156;20.942;2022-09-24T02:00:40;6.80;72.50
68924;DHT22;55961;52.156;20.942;2022-09-24T02:03:14;6.80;72.50
68924;DHT22;55961;52.156;20.942;2022-09-24T02:05:54;6.80;72.50
68924;DHT22;55961;52.156;20.942;2022-09-24T02:08:37;6.80;72.60
68924;DHT22;55961;52.156;20.942;2022-09-24T02:11:16;6.80;72.50
68924;DHT22;55961;52.156;20.942;2022-09-24T02:13:49;6.80;72.40
68924;DHT22;55961;52.156;20.942;2022-09-24T02:16:20;6.70;72.40
68924;DHT22;55961;52.156;20.942;2022-09-24T02:18:50;6.70;72.40
68924;DHT22;55961;52.156;20.942;2022-09-24T02:21:17;6.70;72.30
68924;DHT22;55961;52.156;20.942;2022-09-24T02:23:50;6.70;72.30
68924;DHT22;55961;52.156;20.942;2022-09-24T02:26:16;6.70;72.30
68924;DHT22;55961;52.156;20.942;2022-09-24T02:28:42;6.70;72.40
68924;DHT22;55961;52.156;20.942;2022-09-24T02:31:14;6.70;72.40
68924;DHT22;55961;52.156;20.942;2022-09-24T02:33:43;6.60;72.40
68924;DHT22;55961;52.156;20.942;2022-09-24T02:36:29;6.60;72.30
68924;DHT22;55961;52.156;20.942;2022-09-24T02:38:55;6.60;72.30
68924;DHT22;55961;52.156;20.942;2022-09-24T02:41:22;6.60;72.30
68924;DHT22;55961;52.156;20.942;2022-09-24T02:43:49;6.50;72.30
68924;DHT22;55961;52.156;20.942;2022-09-24T02:46:15;6.50;72.40
68924;DHT22;55961;52.156;20.942;2022-09-24T02:48:41;6.50;72.40
68924;DHT22;55961;52.156;20.942;2022-09-24T02:51:07;6.50;72.30
68924;DHT22;55961;52.156;20.942;2022-09-24T02:53:33;6.40;72.30
68924;DHT22;55961;52.156;20.942;2022-09-24T02:55:59;6.40;72.30
68924;DHT22;55961;52.156;20.942;2022-09-24T02:58:26;6.40;72.10
68924;DHT22;55961;52.156;20.942;2022-09-24T03:00:52;6.40;72.10
68924;DHT22;55961;52.156;20.942;2022-09-24T03:03:20;6.30;72.00
68924;DHT22;55961;52.156;20.942;2022-09-24T03:05:51;6.30;72.00
68924;DHT22;55961;52.156;20.942;2022-09-24T03:08:21;6.30;71.90
68924;DHT22;55961;52.156;20.942;2022-09-24T03:10:49;6.30;71.90
68924;DHT22;55961;52.156;20.942;2022-09-24T03:13:16;6.20;72.00
68924;DHT22;55961;52.156;20.942;2022-09-24T03:15:44;6.20;72.10
68924;DHT22;55961;52.156;20.942;2022-09-24T03:18:10;6.10;72.20
68924;DHT22;55961;52.156;20.942;2022-09-24T03:20:36;6.10;72.10
68924;DHT22;55961;52.156;20.942;2022-09-24T03:23:02;6.10;72.00
68924;DHT22;55961;52.156;20.942;2022-09-24T03:25:28;6.10;72.00
68924;DHT22;55961;52.156;20.942;2022-09-24T03:27:54;6.10;71.90
68924;DHT22;55961;52.156;20.942;2022-09-24T03:30:20;6.00;71.90
68924;DHT22;55961;52.156;20.942;2022-09-24T03:33:05;6.00;71.80
68924;DHT22;55961;52.156;20.942;2022-09-24T03:35:30;6.00;71.80
68924;DHT22;55961;52.156;20.942;2022-09-24T03:37:56;5.90;71.80
68924;DHT22;55961;52.156;20.942;2022-09-24T03:40:22;5.90;71.80
68924;DHT22;55961;52.156;20.942;2022-09-24T03:42:48;5.90;72.00
68924;DHT22;55961;52.156;20.942;2022-09-24T03:45:14;5.90;72.40
68924;DHT22;55961;52.156;20.942;2022-09-24T03:47:40;5.80;72.40
68924;DHT22;55961;52.156;20.942;2022-09-24T03:50:07;5.80;72.30
68924;DHT22;55961;52.156;20.942;2022-09-24T03:52:37;5.80;72.30
68924;DHT22;55961;52.156;20.942;2022-09-24T03:55:03;5.80;72.30
68924;DHT22;55961;52.156;20.942;2022-09-24T03:57:30;5.70;72.20
68924;DHT22;55961;52.156;20.942;2022-09-24T03:59:55;5.70;72.60
68924;DHT22;55961;52.156;20.942;2022-09-24T04:02:23;5.70;72.50
68924;DHT22;55961;52.156;20.942;2022-09-24T04:04:49;5.60;72.50
68924;DHT22;55961;52.156;20.942;2022-09-24T04:07:15;5.60;72.60
68924;DHT22;55961;52.156;20.942;2022-09-24T04:09:40;5.60;72.90
68924;DHT22;55961;52.156;20.942;2022-09-24T04:12:06;5.60;73.00
68924;DHT22;55961;52.156;20.942;2022-09-24T04:14:32;5.50;73.10
68924;DHT22;55961;52.156;20.942;2022-09-24T04:16:58;5.50;73.20
68924;DHT22;55961;52.156;20.942;2022-09-24T04:19:24;5.50;73.30
68924;DHT22;55961;52.156;20.942;2022-09-24T04:21:51;5.50;73.40
68924;DHT22;55961;52.156;20.942;2022-09-24T04:24:17;5.50;73.50
68924;DHT22;55961;52.156;20.942;2022-09-24T04:26:43;5.50;73.60
68924;DHT22;55961;52.156;20.942;2022-09-24T04:29:09;5.50;73.60
68924;DHT22;55961;52.156;20.942;2022-09-24T04:31:35;5.50;73.60
68924;DHT22;55961;52.156;20.942;2022-09-24T04:34:01;5.50;73.50
68924;DHT22;55961;52.156;20.942;2022-09-24T04:36:27;5.50;73.60
68924;DHT22;55961;52.156;20.942;2022-09-24T04:38:53;5.50;73.70
68924;DHT22;55961;52.156;20.942;2022-09-24T04:41:18;5.50;73.80
68924;DHT22;55961;52.156;20.942;2022-09-24T04:43:45;5.50;73.90
68924;DHT22;55961;52.156;20.942;2022-09-24T04:46:11;5.50;73.90
68924;DHT22;55961;52.156;20.942;2022-09-24T04:48:38;5.50;74.00
68924;DHT22;55961;52.156;20.942;2022-09-24T04:51:08;5.50;74.10
68924;DHT22;55961;52.156;20.942;2022-09-24T04:53:35;5.50;74.30
68924;DHT22;55961;52.156;20.942;2022-09-24T04:56:03;5.60;74.30
68924;DHT22;55961;52.156;20.942;2022-09-24T04:58:29;5.60;74.20
68924;DHT22;55961;52.156;20.942;2022-09-24T05:00:55;5.60;74.40
68924;DHT22;55961;52.156;20.942;2022-09-24T05:03:21;5.60;74.20
68924;DHT22;55961;52.156;20.942;2022-09-24T05:05:48;5.60;74.20
68924;DHT22;55961;52.156;20.942;2022-09-24T05:08:16;5.60;74.40
68924;DHT22;55961;52.156;20.942;2022-09-24T05:10:42;5.60;74.50
68924;DHT22;55961;52.156;20.942;2022-09-24T05:13:08;5.60;74.70
68924;DHT22;55961;52.156;20.942;2022-09-24T05:15:34;5.70;74.90
68924;DHT22;55961;52.156;20.942;2022-09-24T05:18:00;5.70;75.10
68924;DHT22;55961;52.156;20.942;2022-09-24T05:20:26;5.80;75.30
68924;DHT22;55961;52.156;20.942;2022-09-24T05:22:51;5.80;75.60
68924;DHT22;55961;52.156;20.942;2022-09-24T05:25:19;5.90;75.80
68924;DHT22;55961;52.156;20.942;2022-09-24T05:27:47;6.00;76.10
68924;DHT22;55961;52.156;20.942;2022-09-24T05:30:14;6.00;76.40
68924;DHT22;55961;52.156;20.942;2022-09-24T05:32:41;6.10;76.70
68924;DHT22;55961;52.156;20.942;2022-09-24T05:35:07;6.20;77.00
68924;DHT22;55961;52.156;20.942;2022-09-24T05:37:35;6.30;77.30
68924;DHT22;55961;52.156;20.942;2022-09-24T05:40:02;6.40;77.60
68924;DHT22;55961;52.156;20.942;2022-09-24T05:42:49;6.50;77.80
68924;DHT22;55961;52.156;20.942;2022-09-24T05:45:15;6.70;77.90
68924;DHT22;55961;52.156;20.942;2022-09-24T05:47:45;6.80;77.90
68924;DHT22;55961;52.156;20.942;2022-09-24T05:50:12;6.90;77.80
68924;DHT22;55961;52.156;20.942;2022-09-24T05:52:39;7.00;77.70
68924;DHT22;55961;52.156;20.942;2022-09-24T05:55:06;7.10;77.60
68924;DHT22;55961;52.156;20.942;2022-09-24T05:57:33;7.20;77.50
68924;DHT22;55961;52.156;20.942;2022-09-24T05:59:59;7.30;77.40
68924;DHT22;55961;52.156;20.942;2022-09-24T06:02:25;7.40;77.10
68924;DHT22;55961;52.156;20.942;2022-09-24T06:04:50;7.50;76.90
68924;DHT22;55961;52.156;20.942;2022-09-24T06:07:16;7.60;76.80
68924;DHT22;55961;52.156;20.942;2022-09-24T06:09:42;7.70;76.50
68924;DHT22;55961;52.156;20.942;2022-09-24T06:12:09;7.80;76.20
68924;DHT22;55961;52.156;20.942;2022-09-24T06:14:35;7.90;76.10
68924;DHT22;55961;52.156;20.942;2022-09-24T06:17:01;8.00;76.00
68924;DHT22;55961;52.156;20.942;2022-09-24T06:19:27;8.10;75.60
68924;DHT22;55961;52.156;20.942;2022-09-24T06:21:53;8.20;75.40
68924;DHT22;55961;52.156;20.942;2022-09-24T06:24:19;8.30;75.00
68924;DHT22;55961;52.156;20.942;2022-09-24T06:26:45;8.30;74.80
68924;DHT22;55961;52.156;20.942;2022-09-24T06:29:11;8.40;74.20
68924;DHT22;55961;52.156;20.942;2022-09-24T06:31:37;8.50;74.00
68924;DHT22;55961;52.156;20.942;2022-09-24T06:34:03;8.60;73.90
68924;DHT22;55961;52.156;20.942;2022-09-24T06:36:29;8.60;73.60
68924;DHT22;55961;52.156;20.942;2022-09-24T06:38:55;8.70;73.30
68924;DHT22;55961;52.156;20.942;2022-09-24T06:41:23;8.80;73.00
68924;DHT22;55961;52.156;20.942;2022-09-24T06:43:49;8.90;72.90
68924;DHT22;55961;52.156;20.942;2022-09-24T06:46:14;9.00;73.20
68924;DHT22;55961;52.156;20.942;2022-09-24T06:48:40;9.10;73.30
68924;DHT22;55961;52.156;20.942;2022-09-24T06:51:07;9.20;73.50
68924;DHT22;55961;52.156;20.942;2022-09-24T06:53:33;9.30;73.30
68924;DHT22;55961;52.156;20.942;2022-09-24T06:55:59;9.40;72.80
68924;DHT22;55961;52.156;20.942;2022-09-24T06:58:25;9.60;72.10
68924;DHT22;55961;52.156;20.942;2022-09-24T07:00:56;9.70;71.60
68924;DHT22;55961;52.156;20.942;2022-09-24T07:03:27;9.90;72.10
68924;DHT22;55961;52.156;20.942;2022-09-24T07:05:54;10.00;71.00
68924;DHT22;55961;52.156;20.942;2022-09-24T07:08:20;10.20;70.00
68924;DHT22;55961;52.156;20.942;2022-09-24T07:10:46;10.30;69.50
68924;DHT22;55961;52.156;20.942;2022-09-24T07:13:17;10.50;69.60
68924;DHT22;55961;52.156;20.942;2022-09-24T07:15:44;10.70;69.90
68924;DHT22;55961;52.156;20.942;2022-09-24T07:18:10;10.90;68.80
68924;DHT22;55961;52.156;20.942;2022-09-24T07:20:36;11.10;67.90
68924;DHT22;55961;52.156;20.942;2022-09-24T07:23:07;11.30;67.40
68924;DHT22;55961;52.156;20.942;2022-09-24T07:25:33;11.40;66.90
68924;DHT22;55961;52.156;20.942;2022-09-24T07:28:09;11.70;66.40
68924;DHT22;55961;52.156;20.942;2022-09-24T07:30:36;11.90;66.00
68924;DHT22;55961;52.156;20.942;2022-09-24T07:33:03;12.00;65.80
68924;DHT22;55961;52.156;20.942;2022-09-24T07:35:30;12.20;66.00
68924;DHT22;55961;52.156;20.942;2022-09-24T07:38:00;12.40;65.20
68924;DHT22;55961;52.156;20.942;2022-09-24T07:40:28;12.60;62.40
68924;DHT22;55961;52.156;20.942;2022-09-24T07:42:55;12.70;61.00
68924;DHT22;55961;52.156;20.942;2022-09-24T07:45:22;12.80;60.50
68924;DHT22;55961;52.156;20.942;2022-09-24T07:48:04;13.00;59.40
68924;DHT22;55961;52.156;20.942;2022-09-24T07:50:33;13.10;59.70
68924;DHT22;55961;52.156;20.942;2022-09-24T07:52:59;13.30;59.20
68924;DHT22;55961;52.156;20.942;2022-09-24T07:55:26;13.40;58.20
68924;DHT22;55961;52.156;20.942;2022-09-24T07:57:53;13.60;58.20
68924;DHT22;55961;52.156;20.942;2022-09-24T08:00:21;13.70;59.30
68924;DHT22;55961;52.156;20.942;2022-09-24T08:02:47;13.90;57.80
68924;DHT22;55961;52.156;20.942;2022-09-24T08:05:14;14.00;56.90
68924;DHT22;55961;52.156;20.942;2022-09-24T08:07:41;14.20;56.30
68924;DHT22;55961;52.156;20.942;2022-09-24T08:10:08;14.30;55.00
68924;DHT22;55961;52.156;20.942;2022-09-24T08:12:34;14.50;54.50
68924;DHT22;55961;52.156;20.942;2022-09-24T08:15:00;14.70;54.80
68924;DHT22;55961;52.156;20.942;2022-09-24T08:17:26;14.80;54.20
68924;DHT22;55961;52.156;20.942;2022-09-24T08:19:55;14.90;53.70
68924;DHT22;55961;52.156;20.942;2022-09-24T08:22:22;15.00;53.40
68924;DHT22;55961;52.156;20.942;2022-09-24T08:24:48;15.20;54.00
68924;DHT22;55961;52.156;20.942;2022-09-24T08:27:16;15.30;52.90
68924;DHT22;55961;52.156;20.942;2022-09-24T08:29:42;15.50;52.40
68924;DHT22;55961;52.156;20.942;2022-09-24T08:32:11;15.70;51.00
68924;DHT22;55961;52.156;20.942;2022-09-24T08:34:38;15.80;49.70
68924;DHT22;55961;52.156;20.942;2022-09-24T08:37:06;16.00;48.80
68924;DHT22;55961;52.156;20.942;2022-09-24T08:39:32;16.10;48.90
68924;DHT22;55961;52.156;20.942;2022-09-24T08:42:03;16.20;48.70
68924;DHT22;55961;52.156;20.942;2022-09-24T08:44:45;16.40;48.50
68924;DHT22;55961;52.156;20.942;2022-09-24T08:47:33;16.50;48.00
68924;DHT22;55961;52.156;20.942;2022-09-24T08:50:20;16.70;48.10
68924;DHT22;55961;52.156;20.942;2022-09-24T08:55:47;17.00;47.00
68924;DHT22;55961;52.156;20.942;2022-09-24T08:58:37;17.10;46.20
68924;DHT22;55961;52.156;20.942;2022-09-24T09:12:29;17.50;45.10
68924;DHT22;55961;52.156;20.942;2022-09-24T09:15:03;17.50;44.80
68924;DHT22;55961;52.156;20.942;2022-09-24T09:20:20;17.40;44.40
68924;DHT22;55961;52.156;20.942;2022-09-24T09:22:50;17.40;44.90
68924;DHT22;55961;52.156;20.942;2022-09-24T09:25:27;17.50;44.00
68924;DHT22;55961;52.156;20.942;2022-09-24T09:28:03;17.50;44.50
68924;DHT22;55961;52.156;20.942;2022-09-24T09:35:53;17.80;42.00
68924;DHT22;55961;52.156;20.942;2022-09-24T09:38:32;17.90;42.40
68924;DHT22;55961;52.156;20.942;2022-09-24T09:44:15;18.00;41.90
68924;DHT22;55961;52.156;20.942;2022-09-24T09:46:50;18.20;42.60
68924;DHT22;55961;52.156;20.942;2022-09-24T09:49:18;18.30;41.20
68924;DHT22;55961;52.156;20.942;2022-09-24T09:51:45;18.30;41.00
68924;DHT22;55961;52.156;20.942;2022-09-24T09:54:13;18.30;41.40
68924;DHT22;55961;52.156;20.942;2022-09-24T09:56:46;18.30;42.70
68924;DHT22;55961;52.156;20.942;2022-09-24T10:01:40;18.50;41.60
68924;DHT22;55961;52.156;20.942;2022-09-24T10:06:48;18.40;41.80
68924;DHT22;55961;52.156;20.942;2022-09-24T10:09:16;18.40;42.20
68924;DHT22;55961;52.156;20.942;2022-09-24T10:11:45;18.40;43.00
68924;DHT22;55961;52.156;20.942;2022-09-24T10:14:13;18.30;42.70
68924;DHT22;55961;52.156;20.942;2022-09-24T10:16:45;18.30;42.10
68924;DHT22;55961;52.156;20.942;2022-09-24T10:19:20;18.30;42.60
68924;DHT22;55961;52.156;20.942;2022-09-24T10:21:48;18.40;42.30
68924;DHT22;55961;52.156;20.942;2022-09-24T10:24:21;18.50;42.60
68924;DHT22;55961;52.156;20.942;2022-09-24T10:26:47;18.60;42.70
68924;DHT22;55961;52.156;20.942;2022-09-24T10:29:20;18.60;41.80
68924;DHT22;55961;52.156;20.942;2022-09-24T10:32:12;18.70;40.90
68924;DHT22;55961;52.156;20.942;2022-09-24T10:34:39;18.60;41.90
68924;DHT22;55961;52.156;20.942;2022-09-24T10:37:13;18.70;42.30
68924;DHT22;55961;52.156;20.942;2022-09-24T10:39:40;18.70;42.70
68924;DHT22;55961;52.156;20.942;2022-09-24T10:42:26;18.80;43.30
68924;DHT22;55961;52.156;20.942;2022-09-24T10:44:52;18.90;43.40
68924;DHT22;55961;52.156;20.942;2022-09-24T10:47:25;19.00;43.80
68924;DHT22;55961;52.156;20.942;2022-09-24T11:00:40;19.70;39.80
68924;DHT22;55961;52.156;20.942;2022-09-24T11:17:45;19.70;39.40
68924;DHT22;55961;52.156;20.942;2022-09-24T11:20:28;19.60;38.70
68924;DHT22;55961;52.156;20.942;2022-09-24T11:25:53;19.40;38.70
68924;DHT22;55961;52.156;20.942;2022-09-24T11:29:15;19.30;38.40
68924;DHT22;55961;52.156;20.942;2022-09-24T11:32:18;19.20;38.40
68924;DHT22;55961;52.156;20.942;2022-09-24T11:38:06;19.40;38.50
68924;DHT22;55961;52.156;20.942;2022-09-24T11:41:24;19.60;38.10
68924;DHT22;55961;52.156;20.942;2022-09-24T11:44:08;19.70;38.20
68924;DHT22;55961;52.156;20.942;2022-09-24T11:57:35;20.00;37.20
68924;DHT22;55961;52.156;20.942;2022-09-24T12:00:13;20.00;38.40
68924;DHT22;55961;52.156;20.942;2022-09-24T12:02:51;20.10;38.30
68924;DHT22;55961;52.156;20.942;2022-09-24T12:05:36;20.30;37.80
68924;DHT22;55961;52.156;20.942;2022-09-24T12:08:09;20.50;37.90
68924;DHT22;55961;52.156;20.942;2022-09-24T12:11:07;20.60;37.90
68924;DHT22;55961;52.156;20.942;2022-09-24T12:13:59;20.50;37.00
68924;DHT22;55961;52.156;20.942;2022-09-24T12:16:35;20.40;38.00
68924;DHT22;55961;52.156;20.942;2022-09-24T12:19:11;20.30;38.20
68924;DHT22;55961;52.156;20.942;2022-09-24T12:21:43;20.30;38.70
68924;DHT22;55961;52.156;20.942;2022-09-24T12:26:39;20.40;38.40
68924;DHT22;55961;52.156;20.942;2022-09-24T12:44:04;19.90;38.40
68924;DHT22;55961;52.156;20.942;2022-09-24T12:46:40;19.80;38.10
68924;DHT22;55961;52.156;20.942;2022-09-24T12:51:59;19.70;38.30
68924;DHT22;55961;52.156;20.942;2022-09-24T12:54:36;19.60;38.90
68924;DHT22;55961;52.156;20.942;2022-09-24T12:57:16;19.40;38.50
68924;DHT22;55961;52.156;20.942;2022-09-24T13:00:45;19.20;39.30
68924;DHT22;55961;52.156;20.942;2022-09-24T13:02:46;19.10;40.30
68924;DHT22;55961;52.156;20.942;2022-09-24T13:10:34;18.90;41.20
68924;DHT22;55961;52.156;20.942;2022-09-24T13:13:05;18.80;40.70
68924;DHT22;55961;52.156;20.942;2022-09-24T13:15:40;18.80;39.80
68924;DHT22;55961;52.156;20.942;2022-09-24T13:20:37;18.60;39.60
68924;DHT22;55961;52.156;20.942;2022-09-24T13:26:05;18.40;40.00
68924;DHT22;55961;52.156;20.942;2022-09-24T13:28:51;18.30;39.80
68924;DHT22;55961;52.156;20.942;2022-09-24T13:36:59;18.00;39.90
68924;DHT22;55961;52.156;20.942;2022-09-24T13:39:48;18.00;40.40
68924;DHT22;55961;52.156;20.942;2022-09-24T13:45:00;17.90;40.30
68924;DHT22;55961;52.156;20.942;2022-09-24T13:50:17;17.80;39.60
68924;DHT22;55961;52.156;20.942;2022-09-24T13:52:56;17.80;39.80
68924;DHT22;55961;52.156;20.942;2022-09-24T13:55:33;17.80;39.80
68924;DHT22;55961;52.156;20.942;2022-09-24T13:58:00;17.70;39.80
68924;DHT22;55961;52.156;20.942;2022-09-24T14:00:27;17.70;40.20
68924;DHT22;55961;52.156;20.942;2022-09-24T14:02:55;17.70;40.40
68924;DHT22;55961;52.156;20.942;2022-09-24T14:05:22;17.70;40.40
68924;DHT22;55961;52.156;20.942;2022-09-24T14:08:15;17.70;40.30
68924;DHT22;55961;52.156;20.942;2022-09-24T14:10:42;17.70;40.30
68924;DHT22;55961;52.156;20.942;2022-09-24T14:16:07;17.70;40.70
68924;DHT22;55961;52.156;20.942;2022-09-24T14:18:33;17.80;41.20
68924;DHT22;55961;52.156;20.942;2022-09-24T14:26:29;17.80;40.80
68924;DHT22;55961;52.156;20.942;2022-09-24T14:28:58;17.90;41.20
68924;DHT22;55961;52.156;20.942;2022-09-24T14:31:25;17.90;40.60
68924;DHT22;55961;52.156;20.942;2022-09-24T14:33:52;17.90;40.90
68924;DHT22;55961;52.156;20.942;2022-09-24T14:36:18;17.90;40.80
68924;DHT22;55961;52.156;20.942;2022-09-24T14:38:57;17.90;40.90
68924;DHT22;55961;52.156;20.942;2022-09-24T14:41:28;17.90;40.50
68924;DHT22;55961;52.156;20.942;2022-09-24T14:44:04;17.90;40.90
68924;DHT22;55961;52.156;20.942;2022-09-24T14:46:34;17.90;40.40
68924;DHT22;55961;52.156;20.942;2022-09-24T14:49:15;17.90;40.30
68924;DHT22;55961;52.156;20.942;2022-09-24T14:52:02;18.00;40.30
68924;DHT22;55961;52.156;20.942;2022-09-24T14:54:36;18.00;40.40
68924;DHT22;55961;52.156;20.942;2022-09-24T14:57:24;18.00;41.00
68924;DHT22;55961;52.156;20.942;2022-09-24T14:59:50;17.90;41.00
68924;DHT22;55961;52.156;20.942;2022-09-24T15:02:29;17.90;41.30
68924;DHT22;55961;52.156;20.942;2022-09-24T15:05:05;17.90;40.90
68924;DHT22;55961;52.156;20.942;2022-09-24T15:07:33;17.90;40.80
68924;DHT22;55961;52.156;20.942;2022-09-24T15:10:00;17.80;41.10
68924;DHT22;55961;52.156;20.942;2022-09-24T15:12:33;17.80;41.70
68924;DHT22;55961;52.156;20.942;2022-09-24T15:17:42;17.70;41.50
68924;DHT22;55961;52.156;20.942;2022-09-24T15:20:10;17.70;41.60
68924;DHT22;55961;52.156;20.942;2022-09-24T15:22:36;17.60;41.60
68924;DHT22;55961;52.156;20.942;2022-09-24T15:25:03;17.60;41.80
68924;DHT22;55961;52.156;20.942;2022-09-24T15:27:40;17.60;42.00
68924;DHT22;55961;52.156;20.942;2022-09-24T15:30:17;17.50;42.10
68924;DHT22;55961;52.156;20.942;2022-09-24T15:32:47;17.50;42.80
68924;DHT22;55961;52.156;20.942;2022-09-24T15:35:18;17.40;42.30
68924;DHT22;55961;52.156;20.942;2022-09-24T15:37:44;17.30;42.40
68924;DHT22;55961;52.156;20.942;2022-09-24T15:40:21;17.30;42.50
68924;DHT22;55961;52.156;20.942;2022-09-24T15:42:49;17.20;42.90
68924;DHT22;55961;52.156;20.942;2022-09-24T15:45:17;17.10;43.00
68924;DHT22;55961;52.156;20.942;2022-09-24T15:47:43;17.10;43.70
68924;DHT22;55961;52.156;20.942;2022-09-24T15:50:10;17.00;44.00
68924;DHT22;55961;52.156;20.942;2022-09-24T15:52:43;17.00;44.30
68924;DHT22;55961;52.156;20.942;2022-09-24T15:55:16;16.90;45.40
68924;DHT22;55961;52.156;20.942;2022-09-24T15:57:43;16.90;45.70
68924;DHT22;55961;52.156;20.942;2022-09-24T16:00:17;16.80;45.70
68924;DHT22;55961;52.156;20.942;2022-09-24T16:02:49;16.80;46.10
68924;DHT22;55961;52.156;20.942;2022-09-24T16:05:17;16.70;46.90
68924;DHT22;55961;52.156;20.942;2022-09-24T16:07:43;16.70;47.20
68924;DHT22;55961;52.156;20.942;2022-09-24T16:10:10;16.60;47.70
68924;DHT22;55961;52.156;20.942;2022-09-24T16:12:37;16.60;48.40
68924;DHT22;55961;52.156;20.942;2022-09-24T16:15:04;16.50;49.10
68924;DHT22;55961;52.156;20.942;2022-09-24T16:17:30;16.40;49.60
68924;DHT22;55961;52.156;20.942;2022-09-24T16:19:56;16.30;50.10
68924;DHT22;55961;52.156;20.942;2022-09-24T16:22:22;16.30;50.40
68924;DHT22;55961;52.156;20.942;2022-09-24T16:24:48;16.20;50.80
68924;DHT22;55961;52.156;20.942;2022-09-24T16:27:14;16.10;50.70
68924;DHT22;55961;52.156;20.942;2022-09-24T16:29:40;16.00;51.20
68924;DHT22;55961;52.156;20.942;2022-09-24T16:32:06;15.90;51.80
68924;DHT22;55961;52.156;20.942;2022-09-24T16:34:32;15.90;52.30
68924;DHT22;55961;52.156;20.942;2022-09-24T16:36:59;15.80;52.70
68924;DHT22;55961;52.156;20.942;2022-09-24T16:39:25;15.70;52.80
68924;DHT22;55961;52.156;20.942;2022-09-24T16:41:51;15.60;52.80
68924;DHT22;55961;52.156;20.942;2022-09-24T16:44:17;15.50;52.90
68924;DHT22;55961;52.156;20.942;2022-09-24T16:46:43;15.50;53.40
68924;DHT22;55961;52.156;20.942;2022-09-24T16:49:10;15.40;53.80
68924;DHT22;55961;52.156;20.942;2022-09-24T16:51:37;15.30;54.00
68924;DHT22;55961;52.156;20.942;2022-09-24T16:54:03;15.20;54.20
68924;DHT22;55961;52.156;20.942;2022-09-24T16:56:32;15.20;54.10
68924;DHT22;55961;52.156;20.942;2022-09-24T16:58:58;15.10;54.60
68924;DHT22;55961;52.156;20.942;2022-09-24T17:01:24;15.00;54.50
68924;DHT22;55961;52.156;20.942;2022-09-24T17:03:54;14.90;54.50
68924;DHT22;55961;52.156;20.942;2022-09-24T17:06:26;14.90;54.80
68924;DHT22;55961;52.156;20.942;2022-09-24T17:08:52;14.80;55.40
68924;DHT22;55961;52.156;20.942;2022-09-24T17:11:37;14.70;55.50
68924;DHT22;55961;52.156;20.942;2022-09-24T17:14:08;14.60;56.10
68924;DHT22;55961;52.156;20.942;2022-09-24T17:16:35;14.60;56.60
68924;DHT22;55961;52.156;20.942;2022-09-24T17:19:01;14.50;56.50
68924;DHT22;55961;52.156;20.942;2022-09-24T17:21:28;14.50;56.40
68924;DHT22;55961;52.156;20.942;2022-09-24T17:23:54;14.40;56.50
68924;DHT22;55961;52.156;20.942;2022-09-24T17:26:20;14.30;56.50
68924;DHT22;55961;52.156;20.942;2022-09-24T17:28:49;14.20;56.70
68924;DHT22;55961;52.156;20.942;2022-09-24T17:31:17;14.20;56.90
68924;DHT22;55961;52.156;20.942;2022-09-24T17:33:46;14.10;58.40
68924;DHT22;55961;52.156;20.942;2022-09-24T17:36:13;14.10;58.00
68924;DHT22;55961;52.156;20.942;2022-09-24T17:38:41;14.00;57.80
68924;DHT22;55961;52.156;20.942;2022-09-24T17:41:09;13.90;57.40
68924;DHT22;55961;52.156;20.942;2022-09-24T17:43:36;13.80;57.20
68924;DHT22;55961;52.156;20.942;2022-09-24T17:46:13;13.80;57.40
68924;DHT22;55961;52.156;20.942;2022-09-24T17:48:43;13.70;57.60
68924;DHT22;55961;52.156;20.942;2022-09-24T17:51:20;13.70;57.70
68924;DHT22;55961;52.156;20.942;2022-09-24T17:53:48;13.60;58.00